Time;durP1;ratioP1;P1;durP2;ratioP2;P2;SDS_P1;SDS_P2;PMS_P1;PMS_P2;Temp;Humidity;BMP_temperature;BMP_pressure;BME280_temperature;BME280_humidity;BME280_pressure;Samples;Min_cycle;Max_cycle;Signal;HPM_P1;HPM_P2
2022/10/11 00:00:32;;;;;;;;;;;;;;;6.77;86.63;102403.81;5024390;28;20006;-60
2022/10/11 00:02:57;;;;;;;;;;;;;;;6.75;86.51;102416.28;5025067;28;19921;-60
2022/10/11 00:05:23;;;;;;;;;;;;;;;6.76;86.39;102410.03;5025113;28;20473;-60
2022/10/11 00:07:48;;;;;;;;;;;;;;;6.82;86.26;102414.88;5025268;28;19921;-60
2022/10/11 00:10:13;;;;;;;;;;;;;;;6.88;85.95;102418.88;5023458;28;20678;-61
2022/10/11 00:12:38;;;;;;;;;;;;;;;6.91;86.18;102415.19;5027125;28;19957;-60
2022/10/11 00:15:05;;;;;;;;;;;;;;;6.93;85.95;102413.28;5028400;28;19917;-60
2022/10/11 00:17:30;;;;;;;;;;;;;;;6.90;85.95;102416.13;5025110;28;19920;-60
2022/10/11 00:19:55;;;;;;;;;;;;;;;6.86;85.86;102412.88;5018451;28;19980;-60
2022/10/11 00:22:21;;;;;;;;;;;;;;;6.87;85.70;102422.47;5023764;28;19963;-60
2022/10/11 00:24:46;;;;;;;;;;;;;;;6.86;85.37;102418.16;5021180;28;20381;-60
2022/10/11 00:27:11;;;;;;;;;;;;;;;6.85;85.33;102411.19;5026723;28;20032;-60
2022/10/11 00:29:37;;;;;;;;;;;;;;;6.86;85.45;102412.03;5020216;28;19917;-60
2022/10/11 00:32:02;;;;;;;;;;;;;;;6.90;85.39;102413.50;5025101;28;20016;-59
2022/10/11 00:34:27;;;;;;;;;;;;;;;6.92;85.31;102419.50;5022295;28;20463;-59
2022/10/11 00:36:52;;;;;;;;;;;;;;;6.90;85.39;102416.97;5025341;28;19959;-59
2022/10/11 00:39:17;;;;;;;;;;;;;;;6.88;85.26;102423.31;5023377;28;19925;-59
2022/10/11 00:41:43;;;;;;;;;;;;;;;6.85;85.06;102432.31;5008762;28;19932;-61
2022/10/11 00:44:09;;;;;;;;;;;;;;;6.82;85.21;102424.59;5021716;28;19924;-60
2022/10/11 00:46:34;;;;;;;;;;;;;;;6.77;84.99;102429.38;5028728;28;20008;-60
2022/10/11 00:49:14;;;;;;;;;;;;;;;6.72;84.72;102429.69;5021558;28;20012;-59
2022/10/11 00:51:39;;;;;;;;;;;;;;;6.72;84.80;102440.25;5027493;28;19975;-60
2022/10/11 00:54:06;;;;;;;;;;;;;;;6.69;84.77;102440.47;5023850;28;19925;-60
2022/10/11 00:56:34;;;;;;;;;;;;;;;6.64;84.67;102439.91;5026252;28;19924;-60
2022/10/11 00:59:01;;;;;;;;;;;;;;;6.62;84.65;102444.47;5021836;28;19943;-60
2022/10/11 01:01:27;;;;;;;;;;;;;;;6.57;84.66;102446.56;5023749;28;20391;-59
2022/10/11 01:03:52;;;;;;;;;;;;;;;6.52;84.81;102446.03;5024492;28;19921;-60
2022/10/11 01:06:17;;;;;;;;;;;;;;;6.47;84.55;102445.53;5024551;28;19921;-60
2022/10/11 01:08:43;;;;;;;;;;;;;;;6.44;84.66;102441.31;5022416;28;20019;-60
2022/10/11 01:11:11;;;;;;;;;;;;;;;6.42;84.50;102443.19;5022782;28;19928;-60
2022/10/11 01:13:55;;;;;;;;;;;;;;;6.38;84.52;102441.72;5024079;28;19959;-60
2022/10/11 01:16:26;;;;;;;;;;;;;;;6.35;84.71;102444.53;5024326;28;19925;-59
2022/10/11 01:19:19;;;;;;;;;;;;;;;6.32;84.59;102446.53;5025143;28;19970;-59
2022/10/11 01:21:52;;;;;;;;;;;;;;;6.31;84.49;102453.63;5023962;28;19918;-60
2022/10/11 01:24:17;;;;;;;;;;;;;;;6.32;84.48;102446.53;5012095;28;21469;-60
2022/10/11 01:27:00;;;;;;;;;;;;;;;6.33;84.41;102450.88;5022602;28;19937;-60
2022/10/11 01:29:44;;;;;;;;;;;;;;;6.32;84.42;102450.03;5023561;28;19932;-59
2022/10/11 01:32:27;;;;;;;;;;;;;;;6.26;84.38;102453.09;5021756;28;19963;-60
2022/10/11 01:34:57;;;;;;;;;;;;;;;6.16;84.31;102446.75;5022437;28;20055;-60
2022/10/11 01:37:29;;;;;;;;;;;;;;;6.08;84.22;102449.06;5023559;28;19921;-60
2022/10/11 01:40:01;;;;;;;;;;;;;;;5.99;84.19;102439.09;5025099;28;19921;-59
2022/10/11 01:42:27;;;;;;;;;;;;;;;5.94;84.12;102457.03;5028018;28;19926;-60
2022/10/11 01:44:53;;;;;;;;;;;;;;;5.90;84.17;102459.00;5030453;28;19969;-60
2022/10/11 01:47:21;;;;;;;;;;;;;;;5.87;84.31;102457.41;5028266;28;19971;-59
2022/10/11 01:49:54;;;;;;;;;;;;;;;5.89;84.12;102455.53;5026489;28;19917;-60
2022/10/11 01:52:20;;;;;;;;;;;;;;;5.90;84.12;102459.84;5030655;28;19917;-60
2022/10/11 01:54:57;;;;;;;;;;;;;;;5.90;84.28;102461.66;5036580;28;19967;-60
2022/10/11 01:57:37;;;;;;;;;;;;;;;5.87;84.61;102462.66;5033775;28;19929;-60
2022/10/11 02:00:19;;;;;;;;;;;;;;;5.84;84.49;102454.13;5024309;28;19975;-60
2022/10/11 02:03:04;;;;;;;;;;;;;;;5.84;85.05;102462.03;5023193;28;20336;-60
2022/10/11 02:05:29;;;;;;;;;;;;;;;5.88;85.51;102471.41;5025870;28;19925;-60
2022/10/11 02:07:59;;;;;;;;;;;;;;;5.87;85.30;102467.94;5030587;28;19913;-60
2022/10/11 02:10:27;;;;;;;;;;;;;;;5.82;85.09;102462.13;5027687;28;19917;-60
2022/10/11 02:13:13;;;;;;;;;;;;;;;5.75;85.03;102468.72;5029112;28;19917;-60
2022/10/11 02:15:40;;;;;;;;;;;;;;;5.70;85.01;102475.22;5024212;28;19923;-60
2022/10/11 02:18:08;;;;;;;;;;;;;;;5.65;84.73;102478.19;5029393;28;20360;-60
2022/10/11 02:20:36;;;;;;;;;;;;;;;5.61;84.71;102476.69;5026077;28;19952;-60
2022/10/11 02:23:06;;;;;;;;;;;;;;;5.58;84.96;102480.38;5027006;28;19948;-59
2022/10/11 02:25:33;;;;;;;;;;;;;;;5.56;84.63;102479.63;5023801;28;19921;-60
2022/10/11 02:28:01;;;;;;;;;;;;;;;5.56;84.64;102478.78;5028824;28;19971;-60
2022/10/11 02:30:27;;;;;;;;;;;;;;;5.56;84.86;102471.72;5024970;28;19928;-60
2022/10/11 02:32:53;;;;;;;;;;;;;;;5.57;84.79;102480.47;5029050;28;19954;-59
2022/10/11 02:35:19;;;;;;;;;;;;;;;5.60;84.78;102478.47;5024935;28;19924;-60
2022/10/11 02:38:01;;;;;;;;;;;;;;;5.65;84.66;102482.59;5025520;28;19924;-60
2022/10/11 02:40:36;;;;;;;;;;;;;;;5.66;85.09;102482.50;5023662;28;20561;-60
2022/10/11 02:43:09;;;;;;;;;;;;;;;5.62;85.09;102486.28;5024594;28;19920;-60
2022/10/11 02:45:42;;;;;;;;;;;;;;;5.62;85.15;102488.06;5025797;28;19957;-60
2022/10/11 02:48:08;;;;;;;;;;;;;;;5.60;85.06;102481.09;5019962;28;19925;-59
2022/10/11 02:50:34;;;;;;;;;;;;;;;5.62;84.92;102481.00;5024353;28;19979;-59
2022/10/11 02:52:59;;;;;;;;;;;;;;;5.65;84.95;102477.31;5005614;28;20336;-59
2022/10/11 02:55:24;;;;;;;;;;;;;;;5.69;84.82;102486.72;5027125;28;19931;-60
2022/10/11 02:57:49;;;;;;;;;;;;;;;5.71;85.05;102485.69;5029670;28;19917;-60
2022/10/11 03:00:14;;;;;;;;;;;;;;;5.71;84.79;102488.31;5025308;28;19935;-60
2022/10/11 03:02:39;;;;;;;;;;;;;;;5.68;84.69;102485.88;5027622;28;19921;-60
2022/10/11 03:05:05;;;;;;;;;;;;;;;5.67;84.57;102478.06;5023465;28;19917;-60
2022/10/11 03:07:30;;;;;;;;;;;;;;;5.65;84.79;102480.81;5026867;28;19928;-60
2022/10/11 03:09:55;;;;;;;;;;;;;;;5.64;84.53;102488.81;5026280;28;19921;-60
2022/10/11 03:12:21;;;;;;;;;;;;;;;5.59;84.91;102489.97;5026927;28;19929;-60
2022/10/11 03:14:46;;;;;;;;;;;;;;;5.57;84.51;102491.00;5023932;28;19967;-60
2022/10/11 03:17:11;;;;;;;;;;;;;;;5.51;84.81;102480.84;5025693;28;21812;-60
2022/10/11 03:19:36;;;;;;;;;;;;;;;5.61;84.61;102492.50;5020933;28;19921;-60
2022/10/11 03:22:01;;;;;;;;;;;;;;;5.65;84.95;102487.88;5029011;28;19913;-60
2022/10/11 03:24:26;;;;;;;;;;;;;;;5.64;84.83;102494.94;5026240;28;19931;-60
2022/10/11 03:26:52;;;;;;;;;;;;;;;5.59;84.71;102500.50;5028521;28;19984;-59
2022/10/11 03:29:17;;;;;;;;;;;;;;;5.56;85.08;102492.78;5022349;28;20103;-60
2022/10/11 03:31:42;;;;;;;;;;;;;;;5.57;85.40;102498.91;5027888;28;19917;-60
2022/10/11 03:34:07;;;;;;;;;;;;;;;5.54;85.21;102501.75;5025938;28;20008;-60
2022/10/11 03:36:32;;;;;;;;;;;;;;;5.51;85.50;102499.31;5021664;28;19937;-60
2022/10/11 03:38:58;;;;;;;;;;;;;;;5.47;85.32;102500.41;5032975;28;19916;-60
2022/10/11 03:41:23;;;;;;;;;;;;;;;5.42;85.24;102494.59;5026873;28;19972;-60
2022/10/11 03:43:49;;;;;;;;;;;;;;;5.37;85.22;102504.56;5029940;28;19913;-60
2022/10/11 03:46:14;;;;;;;;;;;;;;;5.37;85.01;102504.56;5026598;28;19956;-60
2022/10/11 03:48:39;;;;;;;;;;;;;;;5.37;84.91;102505.41;5025119;28;19921;-59
2022/10/11 03:51:05;;;;;;;;;;;;;;;5.32;84.96;102485.59;5021172;28;20395;-60
2022/10/11 03:53:30;;;;;;;;;;;;;;;5.41;85.04;102506.91;5025374;28;19921;-60
2022/10/11 03:55:55;;;;;;;;;;;;;;;5.40;84.91;102509.66;5022325;28;20000;-60
2022/10/11 03:58:21;;;;;;;;;;;;;;;5.34;85.03;102512.69;5028547;28;20446;-60
2022/10/11 04:00:46;;;;;;;;;;;;;;;5.25;85.08;102507.03;5025093;28;19959;-60
2022/10/11 04:03:11;;;;;;;;;;;;;;;5.20;84.98;102522.28;5028922;28;20096;-59
2022/10/11 04:05:37;;;;;;;;;;;;;;;5.07;84.96;102507.31;5023894;28;19986;-59
2022/10/11 04:08:02;;;;;;;;;;;;;;;5.08;84.72;102512.50;5027312;28;19921;-60
2022/10/11 04:10:27;;;;;;;;;;;;;;;5.03;84.90;102517.19;5030544;28;19971;-60
2022/10/11 04:12:53;;;;;;;;;;;;;;;5.02;84.74;102514.66;5023328;28;19921;-60
2022/10/11 04:15:18;;;;;;;;;;;;;;;4.98;84.81;102516.63;5022264;28;19917;-59
2022/10/11 04:17:43;;;;;;;;;;;;;;;4.99;84.92;102513.06;5023556;28;19940;-59
2022/10/11 04:20:08;;;;;;;;;;;;;;;5.01;84.80;102521.72;5026182;28;19921;-60
2022/10/11 04:22:34;;;;;;;;;;;;;;;4.99;84.76;102520.97;5025102;28;19917;-60
2022/10/11 04:24:59;;;;;;;;;;;;;;;4.89;84.85;102515.38;5025928;28;19917;-60
2022/10/11 04:27:28;;;;;;;;;;;;;;;4.96;84.79;102531.69;5029377;28;19919;-60
2022/10/11 04:29:53;;;;;;;;;;;;;;;4.94;84.77;102534.41;5027876;28;19921;-60
2022/10/11 04:32:18;;;;;;;;;;;;;;;4.92;84.90;102538.91;5027921;28;19966;-60
2022/10/11 04:34:44;;;;;;;;;;;;;;;4.91;84.96;102541.63;5022316;28;19917;-59
2022/10/11 04:37:09;;;;;;;;;;;;;;;4.88;84.83;102541.81;5023942;28;19969;-60
2022/10/11 04:39:34;;;;;;;;;;;;;;;4.88;84.93;102545.28;5027296;28;20011;-60
2022/10/11 04:41:59;;;;;;;;;;;;;;;4.90;84.78;102546.03;5029705;28;19913;-60
2022/10/11 04:44:25;;;;;;;;;;;;;;;4.94;84.89;102541.47;5029913;28;19956;-59
2022/10/11 04:46:50;;;;;;;;;;;;;;;4.97;85.05;102538.63;5025482;28;19924;-60
2022/10/11 04:49:15;;;;;;;;;;;;;;;5.00;84.91;102548.13;5024958;28;19925;-60
2022/10/11 04:51:40;;;;;;;;;;;;;;;5.00;84.88;102548.97;5025275;28;19917;-60
2022/10/11 04:54:05;;;;;;;;;;;;;;;4.98;84.97;102545.59;5027193;28;19923;-60
2022/10/11 04:56:31;;;;;;;;;;;;;;;4.98;84.91;102556.13;5022782;28;19921;-60
2022/10/11 04:58:56;;;;;;;;;;;;;;;4.98;84.82;102543.81;5020676;28;20051;-59
2022/10/11 05:01:21;;;;;;;;;;;;;;;4.99;84.81;102547.28;5026498;28;19917;-60
2022/10/11 05:03:46;;;;;;;;;;;;;;;5.00;84.92;102548.97;5029468;28;19917;-60
2022/10/11 05:06:11;;;;;;;;;;;;;;;5.01;84.93;102548.03;5028476;28;19936;-60
2022/10/11 05:08:37;;;;;;;;;;;;;;;5.00;84.61;102548.97;5027439;28;19917;-60
2022/10/11 05:11:04;;;;;;;;;;;;;;;4.99;84.88;102555.19;5023153;28;19917;-60
2022/10/11 05:13:30;;;;;;;;;;;;;;;4.93;85.00;102552.94;5024707;28;19920;-60
2022/10/11 05:15:55;;;;;;;;;;;;;;;4.88;84.88;102557.59;5023979;28;19921;-61
2022/10/11 05:18:20;;;;;;;;;;;;;;;4.82;84.80;102565.88;5027588;28;19956;-60
2022/10/11 05:20:46;;;;;;;;;;;;;;;4.78;84.98;102567.00;5022718;28;19951;-60
2022/10/11 05:23:11;;;;;;;;;;;;;;;4.76;84.91;102569.72;5025346;28;19936;-60
2022/10/11 05:25:36;;;;;;;;;;;;;;;4.70;84.91;102567.44;5024736;28;19932;-60
2022/10/11 05:28:02;;;;;;;;;;;;;;;4.66;84.90;102555.41;5019409;28;20399;-60
2022/10/11 05:30:27;;;;;;;;;;;;;;;4.66;84.82;102564.16;5020651;28;19917;-59
2022/10/11 05:32:52;;;;;;;;;;;;;;;4.69;84.73;102564.91;5017814;28;19925;-60
2022/10/11 05:35:17;;;;;;;;;;;;;;;4.66;84.89;102565.94;5021787;28;19921;-60
2022/10/11 05:37:42;;;;;;;;;;;;;;;4.62;84.71;102575.75;5024703;28;19924;-60
2022/10/11 05:40:09;;;;;;;;;;;;;;;4.59;84.84;102569.84;5026451;28;19921;-60
2022/10/11 05:42:34;;;;;;;;;;;;;;;4.58;84.65;102569.00;5026347;28;19917;-60
2022/10/11 05:45:00;;;;;;;;;;;;;;;4.60;84.81;102571.53;5023712;28;19982;-59
2022/10/11 05:47:25;;;;;;;;;;;;;;;4.60;84.94;102580.28;5028754;28;19921;-60
2022/10/11 05:49:50;;;;;;;;;;;;;;;4.59;84.94;102570.69;5022101;28;19926;-60
2022/10/11 05:52:19;;;;;;;;;;;;;;;4.58;84.76;102568.16;5021350;28;19924;-60
2022/10/11 05:54:44;;;;;;;;;;;;;;;4.60;84.86;102574.16;5021328;28;19927;-59
2022/10/11 05:57:09;;;;;;;;;;;;;;;4.59;84.52;102573.31;5026949;28;19925;-60
2022/10/11 05:59:34;;;;;;;;;;;;;;;4.60;84.94;102580.28;5020743;28;19960;-60
2022/10/11 06:02:00;;;;;;;;;;;;;;;4.63;84.75;102584.53;5033223;28;19967;-60
2022/10/11 06:04:25;;;;;;;;;;;;;;;4.65;84.96;102591.41;5026768;28;20404;-59
2022/10/11 06:06:51;;;;;;;;;;;;;;;4.65;85.07;102591.41;5026085;28;19971;-60
2022/10/11 06:09:16;;;;;;;;;;;;;;;4.63;85.09;102592.44;5020546;28;19917;-60
2022/10/11 06:11:42;;;;;;;;;;;;;;;4.61;84.97;102595.13;5024926;28;20385;-60
2022/10/11 06:14:08;;;;;;;;;;;;;;;4.60;84.95;102596.06;5023817;28;19925;-59
2022/10/11 06:16:33;;;;;;;;;;;;;;;4.59;85.14;102598.78;5026097;28;19928;-59
2022/10/11 06:18:58;;;;;;;;;;;;;;;4.57;85.19;102600.66;5020644;28;19967;-60
2022/10/11 06:21:24;;;;;;;;;;;;;;;4.60;85.01;102600.47;5020429;28;19921;-60
2022/10/11 06:23:49;;;;;;;;;;;;;;;4.62;85.24;102609.13;5023161;28;20355;-60
2022/10/11 06:26:15;;;;;;;;;;;;;;;4.60;84.92;102609.22;5021306;28;20567;-59
2022/10/11 06:28:40;;;;;;;;;;;;;;;4.55;85.23;102613.91;5025005;28;19928;-60
2022/10/11 06:31:05;;;;;;;;;;;;;;;4.48;85.17;102612.56;5027101;28;20012;-60
2022/10/11 06:33:31;;;;;;;;;;;;;;;4.45;85.51;102612.75;5028387;28;19917;-60
2022/10/11 06:36:00;;;;;;;;;;;;;;;4.44;85.62;102623.34;5031444;28;19928;-60
2022/10/11 06:38:26;;;;;;;;;;;;;;;4.44;85.29;102624.19;5023394;28;19932;-60
2022/10/11 06:40:51;;;;;;;;;;;;;;;4.45;85.66;102620.63;5027601;28;19917;-59
2022/10/11 06:43:16;;;;;;;;;;;;;;;4.48;85.64;102622.25;5024591;28;19917;-60
2022/10/11 06:45:41;;;;;;;;;;;;;;;4.53;85.49;102617.56;5022666;28;19917;-59
2022/10/11 06:48:06;;;;;;;;;;;;;;;4.59;85.82;102628.56;5023205;28;20026;-59
2022/10/11 06:50:32;;;;;;;;;;;;;;;4.69;85.98;102626.28;5008469;28;20284;-60
2022/10/11 06:52:58;;;;;;;;;;;;;;;4.80;86.04;102628.28;5030931;28;20377;-60
2022/10/11 06:55:23;;;;;;;;;;;;;;;4.90;86.31;102632.06;5026374;28;19932;-59
2022/10/11 06:57:48;;;;;;;;;;;;;;;4.99;86.68;102634.16;5028094;28;19917;-60
2022/10/11 07:00:13;;;;;;;;;;;;;;;5.09;86.35;102637.94;5028297;28;19986;-60
2022/10/11 07:02:39;;;;;;;;;;;;;;;5.18;86.72;102640.03;5029107;28;19925;-60
2022/10/11 07:05:04;;;;;;;;;;;;;;;5.25;86.46;102638.75;5029010;28;19917;-60
2022/10/11 07:07:29;;;;;;;;;;;;;;;5.31;86.49;102641.94;5027846;28;19925;-60
2022/10/11 07:09:54;;;;;;;;;;;;;;;5.39;86.54;102642.31;5025162;28;19982;-59
2022/10/11 07:12:20;;;;;;;;;;;;;;;5.46;86.82;102651.53;5023455;28;19917;-60
2022/10/11 07:14:45;;;;;;;;;;;;;;;5.55;86.60;102643.09;5021816;28;20002;-60
2022/10/11 07:17:10;;;;;;;;;;;;;;;5.67;87.06;102642.34;5020624;28;20359;-59
2022/10/11 07:19:35;;;;;;;;;;;;;;;5.80;87.29;102643.28;5019246;28;19921;-60
2022/10/11 07:22:01;;;;;;;;;;;;;;;5.94;87.65;102647.72;5025473;28;20297;-60
2022/10/11 07:24:26;;;;;;;;;;;;;;;6.05;87.44;102645.22;5025114;28;20343;-61
2022/10/11 07:26:51;;;;;;;;;;;;;;;6.12;87.63;102648.34;5023645;28;19924;-60
2022/10/11 07:29:16;;;;;;;;;;;;;;;6.16;87.63;102650.69;5025128;28;19983;-59
2022/10/11 07:31:42;;;;;;;;;;;;;;;6.32;87.88;102658.47;5025117;28;19925;-59
2022/10/11 07:34:07;;;;;;;;;;;;;;;6.41;87.69;102655.25;5026394;28;20012;-60
2022/10/11 07:36:33;;;;;;;;;;;;;;;6.49;87.87;102655.59;5022775;28;19921;-59
2022/10/11 07:38:58;;;;;;;;;;;;;;;6.59;87.99;102665.56;5028725;28;19921;-60
2022/10/11 07:41:23;;;;;;;;;;;;;;;6.68;88.32;102671.09;5024184;28;20046;-60
2022/10/11 07:43:49;;;;;;;;;;;;;;;6.77;88.49;102667.00;5031956;28;20294;-60
2022/10/11 07:46:15;;;;;;;;;;;;;;;6.84;88.97;102673.56;5025997;28;20052;-60
2022/10/11 07:48:40;;;;;;;;;;;;;;;6.92;89.04;102665.97;5029477;28;20015;-60
2022/10/11 07:51:06;;;;;;;;;;;;;;;7.00;88.91;102676.88;5028917;28;19920;-60
2022/10/11 07:53:31;;;;;;;;;;;;;;;7.09;88.56;102678.91;5032570;28;19917;-60
2022/10/11 07:56:00;;;;;;;;;;;;;;;7.17;88.55;102670.47;5029183;28;19921;-60
2022/10/11 07:58:26;;;;;;;;;;;;;;;7.27;88.87;102673.34;5033161;28;20011;-60
2022/10/11 08:00:51;;;;;;;;;;;;;;;7.37;88.97;102667.31;5029209;28;20464;-60
2022/10/11 08:03:16;;;;;;;;;;;;;;;7.47;89.30;102672.81;5024557;28;19923;-60
2022/10/11 08:05:42;;;;;;;;;;;;;;;7.59;89.43;102671.97;5024798;28;20016;-59
2022/10/11 08:08:07;;;;;;;;;;;;;;;7.70;89.40;102672.06;5028833;28;19971;-60
2022/10/11 08:10:37;;;;;;;;;;;;;;;7.84;89.46;102673.78;5032941;28;19921;-60
2022/10/11 08:13:02;;;;;;;;;;;;;;;7.95;89.32;102679.13;5031085;28;20020;-60
2022/10/11 08:15:27;;;;;;;;;;;;;;;8.04;90.02;102681.13;5030598;28;20004;-60
2022/10/11 08:17:53;;;;;;;;;;;;;;;8.12;90.39;102691.19;5032938;28;19956;-60
2022/10/11 08:20:18;;;;;;;;;;;;;;;8.21;90.52;102689.66;5027218;28;20383;-60
2022/10/11 08:22:43;;;;;;;;;;;;;;;8.31;90.68;102691.53;5032256;28;19956;-59
2022/10/11 08:25:08;;;;;;;;;;;;;;;8.42;91.00;102688.16;5031352;28;19917;-59
2022/10/11 08:27:33;;;;;;;;;;;;;;;8.51;90.75;102684.00;5027373;28;19924;-60
2022/10/11 08:29:59;;;;;;;;;;;;;;;8.59;91.06;102689.56;5028012;28;19924;-60
2022/10/11 08:32:24;;;;;;;;;;;;;;;8.67;90.90;102698.66;5022973;28;19998;-60
2022/10/11 08:34:49;;;;;;;;;;;;;;;8.73;91.30;102694.72;5027460;28;19913;-60
2022/10/11 08:37:14;;;;;;;;;;;;;;;8.82;91.30;102693.19;5022753;28;19963;-60
2022/10/11 08:39:39;;;;;;;;;;;;;;;8.93;91.04;102701.16;5027762;28;20431;-60
2022/10/11 08:42:12;;;;;;;;;;;;;;;9.04;91.29;102703.03;5022809;28;19978;-60
2022/10/11 08:44:42;;;;;;;;;;;;;;;9.13;90.72;102708.47;5028103;28;20043;-61
2022/10/11 08:47:19;;;;;;;;;;;;;;;9.24;90.85;102700.56;5028374;28;19917;-60
2022/10/11 08:49:44;;;;;;;;;;;;;;;9.36;90.84;102704.09;5025243;28;19987;-60
2022/10/11 08:52:16;;;;;;;;;;;;;;;9.46;90.90;102710.38;5028493;28;19924;-60
2022/10/11 08:54:53;;;;;;;;;;;;;;;9.57;90.64;102713.06;5025961;28;19924;-60
2022/10/11 08:57:20;;;;;;;;;;;;;;;9.69;90.42;102715.72;5025322;28;19974;-60
2022/10/11 08:59:59;;;;;;;;;;;;;;;9.78;90.30;102710.53;5019049;28;19935;-60
2022/10/11 09:02:33;;;;;;;;;;;;;;;9.90;89.84;102709.59;5021093;28;19947;-60
2022/10/11 09:04:59;;;;;;;;;;;;;;;10.02;89.48;102721.06;5023535;28;19936;-60
2022/10/11 09:07:38;;;;;;;;;;;;;;;10.14;89.69;102716.59;5022491;28;19925;-60
2022/10/11 09:10:19;;;;;;;;;;;;;;;10.25;89.49;102716.63;5020584;28;19925;-60
2022/10/11 09:13:03;;;;;;;;;;;;;;;10.40;88.61;102722.50;5026083;28;20381;-60
2022/10/11 09:15:28;;;;;;;;;;;;;;;10.52;87.45;102717.06;5024659;28;20060;-60
2022/10/11 09:18:05;;;;;;;;;;;;;;;10.67;87.38;102724.72;5023439;28;19960;-59
2022/10/11 09:20:44;;;;;;;;;;;;;;;10.78;87.20;102716.75;5022875;28;19979;-60
2022/10/11 09:23:32;;;;;;;;;;;;;;;10.87;86.23;102723.94;5025599;28;20451;-60
2022/10/11 09:26:01;;;;;;;;;;;;;;;10.98;85.81;102723.06;5026536;28;19917;-60
2022/10/11 09:28:35;;;;;;;;;;;;;;;11.06;85.26;102720.63;5030210;28;19924;-59
2022/10/11 09:31:00;;;;;;;;;;;;;;;11.17;84.53;102724.06;5030667;28;19924;-60
2022/10/11 09:33:37;;;;;;;;;;;;;;;11.27;83.91;102723.28;5029573;28;19917;-60
2022/10/11 09:36:12;;;;;;;;;;;;;;;11.37;83.69;102725.06;5026662;28;20372;-60
2022/10/11 09:38:42;;;;;;;;;;;;;;;11.48;83.09;102724.97;5019396;28;19936;-60
2022/10/11 09:41:16;;;;;;;;;;;;;;;11.60;82.77;102724.94;5018467;28;20483;-60
2022/10/11 09:43:47;;;;;;;;;;;;;;;11.71;82.26;102724.84;5022807;28;20387;-60
2022/10/11 09:46:23;;;;;;;;;;;;;;;11.77;82.26;102719.00;5032053;28;19920;-59
2022/10/11 09:48:49;;;;;;;;;;;;;;;11.86;81.85;102715.59;5019208;28;21714;-60
2022/10/11 09:51:17;;;;;;;;;;;;;;;11.93;81.41;102716.72;5023276;28;20568;-60
2022/10/11 09:53:51;;;;;;;;;;;;;;;11.99;80.36;102716.19;5025281;28;20367;-60
2022/10/11 09:56:16;;;;;;;;;;;;;;;12.05;79.17;102710.31;5030079;28;20079;-60
2022/10/11 09:58:41;;;;;;;;;;;;;;;12.12;78.55;102720.44;5031296;28;20459;-59
2022/10/11 10:01:07;;;;;;;;;;;;;;;12.16;78.25;102722.72;5031898;28;19917;-59
2022/10/11 10:03:37;;;;;;;;;;;;;;;12.22;77.48;102722.16;5021566;28;19920;-59
2022/10/11 10:06:09;;;;;;;;;;;;;;;12.31;78.10;102720.50;5025365;28;20017;-59
2022/10/11 10:08:34;;;;;;;;;;;;;;;12.36;77.49;102721.78;5022742;28;20207;-60
2022/10/11 10:11:02;;;;;;;;;;;;;;;12.44;76.72;102717.63;5019837;28;19917;-60
2022/10/11 10:13:39;;;;;;;;;;;;;;;12.50;76.17;102715.22;5025322;28;20003;-60
2022/10/11 10:16:06;;;;;;;;;;;;;;;12.57;75.70;102716.38;5020739;28;19925;-60
2022/10/11 10:18:33;;;;;;;;;;;;;;;12.60;75.10;102718.75;5019681;28;19954;-61
2022/10/11 10:20:59;;;;;;;;;;;;;;;12.64;74.80;102717.50;5018826;28;20458;-60
2022/10/11 10:23:31;;;;;;;;;;;;;;;12.71;74.40;102718.63;5020167;28;19956;-60
2022/10/11 10:26:26;;;;;;;;;;;;;;;12.80;73.58;102714.28;5024963;28;20350;-61
2022/10/11 10:28:54;;;;;;;;;;;;;;;12.85;72.82;102713.88;5014503;28;19917;-60
2022/10/11 10:31:20;;;;;;;;;;;;;;;12.91;72.17;102710.63;5028091;28;19913;-61
2022/10/11 10:33:49;;;;;;;;;;;;;;;12.94;70.83;102711.19;5031967;28;20456;-61
2022/10/11 10:36:16;;;;;;;;;;;;;;;13.02;70.64;102716.69;5029666;28;20358;-60
2022/10/11 10:38:46;;;;;;;;;;;;;;;13.05;71.28;102720.91;5025991;28;19953;-60
2022/10/11 10:41:13;;;;;;;;;;;;;;;13.08;70.48;102709.94;5024515;28;19928;-60
2022/10/11 10:43:40;;;;;;;;;;;;;;;13.14;70.71;102708.53;5028855;28;20047;-60
2022/10/11 10:46:08;;;;;;;;;;;;;;;13.16;69.80;102711.91;5030898;28;19913;-60
2022/10/11 10:48:33;;;;;;;;;;;;;;;13.23;68.13;102710.38;5030139;28;19920;-60
2022/10/11 10:51:16;;;;;;;;;;;;;;;13.30;68.69;102707.00;5010341;28;19917;-61
2022/10/11 10:53:44;;;;;;;;;;;;;;;13.33;68.38;102701.41;5027495;28;19931;-60
2022/10/11 10:56:09;;;;;;;;;;;;;;;13.36;68.97;102712.75;5024251;28;19928;-61
2022/10/11 10:58:45;;;;;;;;;;;;;;;13.36;68.45;102702.94;5023591;28;19929;-61
2022/10/11 11:01:17;;;;;;;;;;;;;;;13.40;68.11;102699.00;5027207;28;19956;-60
2022/10/11 11:03:46;;;;;;;;;;;;;;;13.45;68.70;102704.72;5020708;28;20430;-60
2022/10/11 11:06:20;;;;;;;;;;;;;;;13.48;68.29;102706.25;5019665;28;20479;-61
2022/10/11 11:08:49;;;;;;;;;;;;;;;13.55;67.24;102702.03;5029427;28;19917;-60
2022/10/11 11:11:20;;;;;;;;;;;;;;;13.67;67.90;102703.56;5026963;28;19917;-60
2022/10/11 11:13:45;;;;;;;;;;;;;;;13.69;68.10;102698.91;5023472;28;20365;-61
2022/10/11 11:16:17;;;;;;;;;;;;;;;13.74;68.42;102701.97;5026955;28;20427;-61
2022/10/11 11:18:45;;;;;;;;;;;;;;;13.81;68.25;102700.41;5029062;28;19960;-60
2022/10/11 11:21:19;;;;;;;;;;;;;;;13.87;68.06;102689.13;5025401;28;19917;-61
2022/10/11 11:23:44;;;;;;;;;;;;;;;13.99;68.39;102687.13;5022189;28;19917;-61
2022/10/11 11:26:26;;;;;;;;;;;;;;;14.09;68.25;102687.91;5024412;28;19917;-60
2022/10/11 11:28:51;;;;;;;;;;;;;;;14.20;68.87;102681.53;5027776;28;19921;-61
2022/10/11 11:31:35;;;;;;;;;;;;;;;14.29;68.45;102679.78;5028508;28;19927;-60
2022/10/11 11:34:10;;;;;;;;;;;;;;;14.35;66.88;102680.03;5026027;28;19925;-60
2022/10/11 11:36:35;;;;;;;;;;;;;;;14.44;67.46;102678.31;5028011;28;20035;-61
2022/10/11 11:39:02;;;;;;;;;;;;;;;14.57;66.58;102676.97;5026313;28;20051;-60
2022/10/11 11:41:33;;;;;;;;;;;;;;;14.70;66.20;102675.72;5025643;28;19956;-60
2022/10/11 11:44:03;;;;;;;;;;;;;;;14.82;64.08;102678.03;5030216;28;19927;-60
2022/10/11 11:46:32;;;;;;;;;;;;;;;14.88;62.09;102671.22;5027934;28;20479;-61
2022/10/11 11:48:59;;;;;;;;;;;;;;;14.96;61.64;102673.97;5023519;28;19932;-61
2022/10/11 11:51:37;;;;;;;;;;;;;;;15.02;61.02;102672.50;5023640;28;19917;-60
2022/10/11 11:54:14;;;;;;;;;;;;;;;15.07;60.49;102667.56;5029814;28;19921;-60
2022/10/11 11:56:47;;;;;;;;;;;;;;;15.16;62.28;102664.78;5029824;28;20273;-60
2022/10/11 11:59:36;;;;;;;;;;;;;;;15.24;62.59;102658.63;5023905;28;20479;-61
2022/10/11 12:02:21;;;;;;;;;;;;;;;15.29;62.33;102661.66;5025632;28;19924;-62
2022/10/11 12:04:48;;;;;;;;;;;;;;;15.36;62.87;102654.72;5017976;28;19967;-62
2022/10/11 12:07:15;;;;;;;;;;;;;;;15.49;63.23;102648.91;5025029;28;19917;-62
2022/10/11 12:09:43;;;;;;;;;;;;;;;15.59;61.68;102638.97;5021128;28;19971;-62
2022/10/11 12:12:25;;;;;;;;;;;;;;;15.72;62.00;102644.72;5030535;28;20012;-62
2022/10/11 12:14:51;;;;;;;;;;;;;;;15.84;61.81;102652.47;5024350;28;20004;-62
2022/10/11 12:17:21;;;;;;;;;;;;;;;15.92;61.26;102639.97;5027641;28;19921;-62
2022/10/11 12:20:05;;;;;;;;;;;;;;;16.08;61.42;102644.53;5015024;28;19947;-62
2022/10/11 12:22:30;;;;;;;;;;;;;;;16.22;61.40;102646.59;5030474;28;19917;-61
2022/10/11 12:25:08;;;;;;;;;;;;;;;16.34;60.44;102644.44;5024631;28;19924;-61
2022/10/11 12:27:42;;;;;;;;;;;;;;;16.46;59.49;102644.94;5021833;28;19924;-61
2022/10/11 12:30:43;;;;;;;;;;;;;;;16.49;57.95;102639.28;5023913;28;19917;-60
2022/10/11 12:33:22;;;;;;;;;;;;;;;16.42;57.60;102636.41;4987327;28;19922;-60
2022/10/11 12:35:53;;;;;;;;;;;;;;;16.35;56.66;102636.22;5021328;28;19917;-60
2022/10/11 12:38:20;;;;;;;;;;;;;;;16.31;57.11;102634.88;5020274;28;19971;-61
2022/10/11 12:40:46;;;;;;;;;;;;;;;16.26;57.56;102629.19;5030121;28;19920;-61
2022/10/11 12:43:14;;;;;;;;;;;;;;;16.19;57.52;102633.53;5028270;28;20427;-61
2022/10/11 12:45:42;;;;;;;;;;;;;;;16.22;58.03;102627.84;5029634;28;19932;-60
2022/10/11 12:48:16;;;;;;;;;;;;;;;16.29;57.56;102619.97;5024214;28;20411;-60